sensor_id;sensor_type;location;lat;lon;timestamp;P1;durP1;ratioP1;P2;durP2;ratioP2
69956;SDS011;57283;54.816;9.482;2023-03-19T00:01:56;22.40;;;11.30;;
69956;SDS011;57283;54.816;9.482;2023-03-19T00:04:37;23.80;;;11.02;;
69956;SDS011;57283;54.816;9.482;2023-03-19T00:07:05;24.08;;;11.73;;
69956;SDS011;57283;54.816;9.482;2023-03-19T00:09:32;27.08;;;12.43;;
69956;SDS011;57283;54.816;9.482;2023-03-19T00:12:00;29.83;;;13.32;;
69956;SDS011;57283;54.816;9.482;2023-03-19T00:14:29;29.87;;;14.27;;
69956;SDS011;57283;54.816;9.482;2023-03-19T00:16:56;29.33;;;12.75;;
69956;SDS011;57283;54.816;9.482;2023-03-19T00:19:24;31.35;;;15.02;;
69956;SDS011;57283;54.816;9.482;2023-03-19T00:21:52;33.78;;;14.32;;
69956;SDS011;57283;54.816;9.482;2023-03-19T00:24:19;34.85;;;14.43;;
69956;SDS011;57283;54.816;9.482;2023-03-19T00:26:47;31.37;;;15.47;;
69956;SDS011;57283;54.816;9.482;2023-03-19T00:29:14;31.05;;;15.55;;
69956;SDS011;57283;54.816;9.482;2023-03-19T00:31:43;31.55;;;14.13;;
69956;SDS011;57283;54.816;9.482;2023-03-19T00:34:11;27.98;;;13.57;;
69956;SDS011;57283;54.816;9.482;2023-03-19T00:36:39;26.13;;;12.85;;
69956;SDS011;57283;54.816;9.482;2023-03-19T00:39:07;25.10;;;12.07;;
69956;SDS011;57283;54.816;9.482;2023-03-19T00:41:35;23.27;;;12.02;;
69956;SDS011;57283;54.816;9.482;2023-03-19T00:44:03;24.35;;;12.60;;
69956;SDS011;57283;54.816;9.482;2023-03-19T00:46:31;25.45;;;11.98;;
69956;SDS011;57283;54.816;9.482;2023-03-19T00:49:00;25.98;;;12.48;;
69956;SDS011;57283;54.816;9.482;2023-03-19T00:51:28;24.10;;;12.30;;
69956;SDS011;57283;54.816;9.482;2023-03-19T00:53:55;25.58;;;12.98;;
69956;SDS011;57283;54.816;9.482;2023-03-19T00:56:23;21.38;;;11.35;;
69956;SDS011;57283;54.816;9.482;2023-03-19T00:58:51;20.83;;;10.90;;
69956;SDS011;57283;54.816;9.482;2023-03-19T01:01:18;17.80;;;9.93;;
69956;SDS011;57283;54.816;9.482;2023-03-19T01:03:46;16.70;;;8.83;;
69956;SDS011;57283;54.816;9.482;2023-03-19T01:06:15;19.52;;;9.60;;
69956;SDS011;57283;54.816;9.482;2023-03-19T01:08:43;20.85;;;10.95;;
69956;SDS011;57283;54.816;9.482;2023-03-19T01:11:11;26.10;;;12.75;;
69956;SDS011;57283;54.816;9.482;2023-03-19T01:13:39;29.08;;;13.98;;
69956;SDS011;57283;54.816;9.482;2023-03-19T01:16:07;28.33;;;13.93;;
69956;SDS011;57283;54.816;9.482;2023-03-19T01:18:35;25.73;;;13.30;;
69956;SDS011;57283;54.816;9.482;2023-03-19T01:21:03;28.55;;;13.13;;
69956;SDS011;57283;54.816;9.482;2023-03-19T01:23:32;28.83;;;12.82;;
69956;SDS011;57283;54.816;9.482;2023-03-19T01:25:59;27.00;;;12.68;;
69956;SDS011;57283;54.816;9.482;2023-03-19T01:28:27;21.50;;;11.20;;
69956;SDS011;57283;54.816;9.482;2023-03-19T01:30:57;26.83;;;13.20;;
69956;SDS011;57283;54.816;9.482;2023-03-19T01:33:25;24.45;;;11.68;;
69956;SDS011;57283;54.816;9.482;2023-03-19T01:35:53;24.73;;;11.63;;
69956;SDS011;57283;54.816;9.482;2023-03-19T01:38:21;25.52;;;13.95;;
69956;SDS011;57283;54.816;9.482;2023-03-19T01:40:50;22.80;;;11.80;;
69956;SDS011;57283;54.816;9.482;2023-03-19T01:43:18;26.35;;;13.50;;
69956;SDS011;57283;54.816;9.482;2023-03-19T01:45:46;27.77;;;12.93;;
69956;SDS011;57283;54.816;9.482;2023-03-19T01:48:22;24.35;;;14.05;;
69956;SDS011;57283;54.816;9.482;2023-03-19T01:50:51;26.90;;;13.07;;
69956;SDS011;57283;54.816;9.482;2023-03-19T01:53:22;31.00;;;14.30;;
69956;SDS011;57283;54.816;9.482;2023-03-19T01:55:51;27.02;;;13.32;;
69956;SDS011;57283;54.816;9.482;2023-03-19T01:58:21;26.33;;;12.68;;
69956;SDS011;57283;54.816;9.482;2023-03-19T02:00:51;25.13;;;13.95;;
69956;SDS011;57283;54.816;9.482;2023-03-19T02:03:19;28.92;;;14.70;;
69956;SDS011;57283;54.816;9.482;2023-03-19T02:05:47;27.10;;;13.90;;
69956;SDS011;57283;54.816;9.482;2023-03-19T02:08:16;29.10;;;14.13;;
69956;SDS011;57283;54.816;9.482;2023-03-19T02:10:45;31.58;;;14.38;;
69956;SDS011;57283;54.816;9.482;2023-03-19T02:13:14;28.75;;;14.60;;
69956;SDS011;57283;54.816;9.482;2023-03-19T02:15:42;31.92;;;14.77;;
69956;SDS011;57283;54.816;9.482;2023-03-19T02:18:10;30.40;;;14.60;;
69956;SDS011;57283;54.816;9.482;2023-03-19T02:20:40;34.35;;;16.48;;
69956;SDS011;57283;54.816;9.482;2023-03-19T02:23:12;35.67;;;15.45;;
69956;SDS011;57283;54.816;9.482;2023-03-19T02:25:49;39.13;;;17.15;;
69956;SDS011;57283;54.816;9.482;2023-03-19T02:28:18;42.83;;;18.33;;
69956;SDS011;57283;54.816;9.482;2023-03-19T02:30:46;43.10;;;19.63;;
69956;SDS011;57283;54.816;9.482;2023-03-19T02:33:15;41.60;;;18.58;;
69956;SDS011;57283;54.816;9.482;2023-03-19T02:35:43;49.05;;;19.80;;
69956;SDS011;57283;54.816;9.482;2023-03-19T02:38:12;41.85;;;17.23;;
69956;SDS011;57283;54.816;9.482;2023-03-19T02:40:40;43.33;;;20.85;;
69956;SDS011;57283;54.816;9.482;2023-03-19T02:43:11;46.07;;;19.77;;
69956;SDS011;57283;54.816;9.482;2023-03-19T02:45:38;51.60;;;21.77;;
69956;SDS011;57283;54.816;9.482;2023-03-19T02:48:06;46.58;;;21.13;;
69956;SDS011;57283;54.816;9.482;2023-03-19T02:50:34;55.75;;;24.55;;
69956;SDS011;57283;54.816;9.482;2023-03-19T02:53:01;44.45;;;21.83;;
69956;SDS011;57283;54.816;9.482;2023-03-19T02:55:29;51.73;;;23.97;;
69956;SDS011;57283;54.816;9.482;2023-03-19T02:57:56;48.72;;;22.10;;
69956;SDS011;57283;54.816;9.482;2023-03-19T03:00:25;52.63;;;22.65;;
69956;SDS011;57283;54.816;9.482;2023-03-19T03:02:53;47.85;;;21.30;;
69956;SDS011;57283;54.816;9.482;2023-03-19T03:05:22;51.92;;;22.10;;
69956;SDS011;57283;54.816;9.482;2023-03-19T03:07:50;51.63;;;23.07;;
69956;SDS011;57283;54.816;9.482;2023-03-19T03:10:18;57.92;;;23.15;;
69956;SDS011;57283;54.816;9.482;2023-03-19T03:12:46;51.67;;;22.23;;
69956;SDS011;57283;54.816;9.482;2023-03-19T03:15:14;59.17;;;25.67;;
69956;SDS011;57283;54.816;9.482;2023-03-19T03:17:43;55.65;;;23.80;;
69956;SDS011;57283;54.816;9.482;2023-03-19T03:20:12;53.10;;;24.10;;
69956;SDS011;57283;54.816;9.482;2023-03-19T03:22:40;54.40;;;23.60;;
69956;SDS011;57283;54.816;9.482;2023-03-19T03:25:08;59.75;;;23.63;;
69956;SDS011;57283;54.816;9.482;2023-03-19T03:27:36;53.03;;;23.67;;
69956;SDS011;57283;54.816;9.482;2023-03-19T03:30:04;54.72;;;24.55;;
69956;SDS011;57283;54.816;9.482;2023-03-19T03:32:33;54.83;;;23.23;;
69956;SDS011;57283;54.816;9.482;2023-03-19T03:35:02;55.60;;;23.40;;
69956;SDS011;57283;54.816;9.482;2023-03-19T03:37:30;51.95;;;23.08;;
69956;SDS011;57283;54.816;9.482;2023-03-19T03:39:58;53.33;;;22.70;;
69956;SDS011;57283;54.816;9.482;2023-03-19T03:42:25;57.70;;;23.33;;
69956;SDS011;57283;54.816;9.482;2023-03-19T03:44:53;55.70;;;22.63;;
69956;SDS011;57283;54.816;9.482;2023-03-19T03:47:21;51.83;;;23.45;;
69956;SDS011;57283;54.816;9.482;2023-03-19T03:49:49;56.70;;;23.88;;
69956;SDS011;57283;54.816;9.482;2023-03-19T03:52:18;57.42;;;24.67;;
69956;SDS011;57283;54.816;9.482;2023-03-19T03:54:46;58.60;;;23.38;;
69956;SDS011;57283;54.816;9.482;2023-03-19T03:57:14;57.20;;;24.83;;
69956;SDS011;57283;54.816;9.482;2023-03-19T03:59:41;57.60;;;24.45;;
69956;SDS011;57283;54.816;9.482;2023-03-19T04:02:09;56.28;;;22.90;;
69956;SDS011;57283;54.816;9.482;2023-03-19T04:04:36;57.63;;;23.50;;
69956;SDS011;57283;54.816;9.482;2023-03-19T04:07:04;56.25;;;23.75;;
69956;SDS011;57283;54.816;9.482;2023-03-19T04:09:33;60.10;;;23.33;;
69956;SDS011;57283;54.816;9.482;2023-03-19T04:12:01;56.50;;;23.42;;
69956;SDS011;57283;54.816;9.482;2023-03-19T04:14:28;53.63;;;23.13;;
69956;SDS011;57283;54.816;9.482;2023-03-19T04:16:56;55.72;;;23.80;;
69956;SDS011;57283;54.816;9.482;2023-03-19T04:19:24;54.47;;;22.25;;
69956;SDS011;57283;54.816;9.482;2023-03-19T04:21:52;51.90;;;21.37;;
69956;SDS011;57283;54.816;9.482;2023-03-19T04:24:20;58.38;;;24.27;;
69956;SDS011;57283;54.816;9.482;2023-03-19T04:26:48;54.70;;;25.30;;
69956;SDS011;57283;54.816;9.482;2023-03-19T04:29:17;54.42;;;23.20;;
69956;SDS011;57283;54.816;9.482;2023-03-19T04:31:44;60.55;;;23.55;;
69956;SDS011;57283;54.816;9.482;2023-03-19T04:34:12;58.23;;;24.27;;
69956;SDS011;57283;54.816;9.482;2023-03-19T04:36:39;55.55;;;23.00;;
69956;SDS011;57283;54.816;9.482;2023-03-19T04:39:07;55.92;;;22.55;;
69956;SDS011;57283;54.816;9.482;2023-03-19T04:41:35;51.47;;;23.50;;
69956;SDS011;57283;54.816;9.482;2023-03-19T04:44:04;54.08;;;22.95;;
69956;SDS011;57283;54.816;9.482;2023-03-19T04:46:32;54.03;;;22.57;;
69956;SDS011;57283;54.816;9.482;2023-03-19T04:49:00;50.47;;;21.52;;
69956;SDS011;57283;54.816;9.482;2023-03-19T04:51:28;51.03;;;21.67;;
69956;SDS011;57283;54.816;9.482;2023-03-19T04:53:56;62.47;;;24.27;;
69956;SDS011;57283;54.816;9.482;2023-03-19T04:56:23;53.80;;;22.58;;
69956;SDS011;57283;54.816;9.482;2023-03-19T04:58:51;56.17;;;23.37;;
69956;SDS011;57283;54.816;9.482;2023-03-19T05:01:20;57.35;;;22.45;;
69956;SDS011;57283;54.816;9.482;2023-03-19T05:03:48;50.97;;;22.35;;
69956;SDS011;57283;54.816;9.482;2023-03-19T05:06:15;52.65;;;23.48;;
69956;SDS011;57283;54.816;9.482;2023-03-19T05:08:45;55.75;;;22.88;;
69956;SDS011;57283;54.816;9.482;2023-03-19T05:11:12;59.37;;;23.63;;
69956;SDS011;57283;54.816;9.482;2023-03-19T05:13:40;52.70;;;22.63;;
69956;SDS011;57283;54.816;9.482;2023-03-19T05:16:07;53.63;;;22.38;;
69956;SDS011;57283;54.816;9.482;2023-03-19T05:18:37;54.33;;;22.67;;
69956;SDS011;57283;54.816;9.482;2023-03-19T05:21:08;55.45;;;22.20;;
69956;SDS011;57283;54.816;9.482;2023-03-19T05:23:36;52.43;;;21.77;;
69956;SDS011;57283;54.816;9.482;2023-03-19T05:26:04;53.55;;;22.67;;
69956;SDS011;57283;54.816;9.482;2023-03-19T05:28:32;55.03;;;23.13;;
69956;SDS011;57283;54.816;9.482;2023-03-19T05:31:00;52.08;;;22.48;;
69956;SDS011;57283;54.816;9.482;2023-03-19T05:33:29;52.60;;;21.90;;
69956;SDS011;57283;54.816;9.482;2023-03-19T05:35:58;52.13;;;21.93;;
69956;SDS011;57283;54.816;9.482;2023-03-19T05:38:27;50.95;;;21.95;;
69956;SDS011;57283;54.816;9.482;2023-03-19T05:40:54;51.58;;;23.17;;
69956;SDS011;57283;54.816;9.482;2023-03-19T05:43:22;50.10;;;22.17;;
69956;SDS011;57283;54.816;9.482;2023-03-19T05:45:50;52.13;;;21.70;;
69956;SDS011;57283;54.816;9.482;2023-03-19T05:48:18;52.97;;;22.80;;
69956;SDS011;57283;54.816;9.482;2023-03-19T05:50:46;53.40;;;22.10;;
69956;SDS011;57283;54.816;9.482;2023-03-19T05:53:15;45.33;;;21.38;;
69956;SDS011;57283;54.816;9.482;2023-03-19T05:55:43;48.13;;;19.90;;
69956;SDS011;57283;54.816;9.482;2023-03-19T05:58:11;50.72;;;20.60;;
69956;SDS011;57283;54.816;9.482;2023-03-19T06:00:38;55.33;;;22.00;;
69956;SDS011;57283;54.816;9.482;2023-03-19T06:03:06;50.22;;;21.25;;
69956;SDS011;57283;54.816;9.482;2023-03-19T06:05:34;47.38;;;20.90;;
69956;SDS011;57283;54.816;9.482;2023-03-19T06:08:02;47.40;;;20.60;;
69956;SDS011;57283;54.816;9.482;2023-03-19T06:10:31;46.45;;;20.85;;
69956;SDS011;57283;54.816;9.482;2023-03-19T06:12:58;48.70;;;20.57;;
69956;SDS011;57283;54.816;9.482;2023-03-19T06:15:26;43.17;;;20.65;;
69956;SDS011;57283;54.816;9.482;2023-03-19T06:17:54;45.78;;;20.67;;
69956;SDS011;57283;54.816;9.482;2023-03-19T06:20:21;45.15;;;20.58;;
69956;SDS011;57283;54.816;9.482;2023-03-19T06:22:49;46.10;;;20.38;;
69956;SDS011;57283;54.816;9.482;2023-03-19T06:25:17;42.53;;;19.13;;
69956;SDS011;57283;54.816;9.482;2023-03-19T06:27:46;47.38;;;21.52;;
69956;SDS011;57283;54.816;9.482;2023-03-19T06:30:13;40.83;;;20.75;;
69956;SDS011;57283;54.816;9.482;2023-03-19T06:32:41;46.08;;;21.13;;
69956;SDS011;57283;54.816;9.482;2023-03-19T06:35:09;48.10;;;19.58;;
69956;SDS011;57283;54.816;9.482;2023-03-19T06:37:36;44.60;;;20.17;;
69956;SDS011;57283;54.816;9.482;2023-03-19T06:40:04;41.22;;;18.52;;
69956;SDS011;57283;54.816;9.482;2023-03-19T06:42:32;45.15;;;19.92;;
69956;SDS011;57283;54.816;9.482;2023-03-19T06:45:01;45.40;;;20.92;;
69956;SDS011;57283;54.816;9.482;2023-03-19T06:47:28;43.83;;;19.95;;
69956;SDS011;57283;54.816;9.482;2023-03-19T06:49:56;42.63;;;20.23;;
69956;SDS011;57283;54.816;9.482;2023-03-19T06:52:24;42.22;;;19.88;;
69956;SDS011;57283;54.816;9.482;2023-03-19T06:54:52;39.13;;;18.27;;
69956;SDS011;57283;54.816;9.482;2023-03-19T06:57:20;38.03;;;18.05;;
69956;SDS011;57283;54.816;9.482;2023-03-19T06:59:47;40.50;;;19.05;;
69956;SDS011;57283;54.816;9.482;2023-03-19T07:02:17;39.10;;;19.37;;
69956;SDS011;57283;54.816;9.482;2023-03-19T07:04:44;36.58;;;17.90;;
69956;SDS011;57283;54.816;9.482;2023-03-19T07:07:12;43.03;;;19.80;;
69956;SDS011;57283;54.816;9.482;2023-03-19T07:09:39;38.72;;;18.55;;
69956;SDS011;57283;54.816;9.482;2023-03-19T07:12:07;40.65;;;19.17;;
69956;SDS011;57283;54.816;9.482;2023-03-19T07:14:35;35.13;;;18.50;;
69956;SDS011;57283;54.816;9.482;2023-03-19T07:17:02;39.15;;;18.00;;
69956;SDS011;57283;54.816;9.482;2023-03-19T07:19:31;40.03;;;19.08;;
69956;SDS011;57283;54.816;9.482;2023-03-19T07:21:59;37.85;;;19.50;;
69956;SDS011;57283;54.816;9.482;2023-03-19T07:24:26;36.65;;;18.63;;
69956;SDS011;57283;54.816;9.482;2023-03-19T07:26:54;39.67;;;18.40;;
69956;SDS011;57283;54.816;9.482;2023-03-19T07:29:22;36.15;;;17.85;;
69956;SDS011;57283;54.816;9.482;2023-03-19T07:31:49;41.35;;;18.50;;
69956;SDS011;57283;54.816;9.482;2023-03-19T07:34:17;36.35;;;18.05;;
69956;SDS011;57283;54.816;9.482;2023-03-19T07:36:46;36.30;;;17.88;;
69956;SDS011;57283;54.816;9.482;2023-03-19T07:39:13;35.07;;;17.40;;
69956;SDS011;57283;54.816;9.482;2023-03-19T07:41:41;37.70;;;17.42;;
69956;SDS011;57283;54.816;9.482;2023-03-19T07:44:10;35.15;;;17.90;;
69956;SDS011;57283;54.816;9.482;2023-03-19T07:46:37;34.75;;;17.33;;
69956;SDS011;57283;54.816;9.482;2023-03-19T07:49:05;30.33;;;15.00;;
69956;SDS011;57283;54.816;9.482;2023-03-19T07:51:32;32.83;;;16.50;;
69956;SDS011;57283;54.816;9.482;2023-03-19T07:54:01;28.98;;;15.82;;
69956;SDS011;57283;54.816;9.482;2023-03-19T07:56:29;28.05;;;14.80;;
69956;SDS011;57283;54.816;9.482;2023-03-19T07:58:57;27.92;;;14.57;;
69956;SDS011;57283;54.816;9.482;2023-03-19T08:01:25;29.08;;;14.43;;
69956;SDS011;57283;54.816;9.482;2023-03-19T08:03:52;25.03;;;13.80;;
69956;SDS011;57283;54.816;9.482;2023-03-19T08:06:20;27.02;;;13.10;;
69956;SDS011;57283;54.816;9.482;2023-03-19T08:08:48;24.27;;;13.07;;
69956;SDS011;57283;54.816;9.482;2023-03-19T08:11:18;23.10;;;12.88;;
69956;SDS011;57283;54.816;9.482;2023-03-19T08:13:45;21.17;;;11.75;;
69956;SDS011;57283;54.816;9.482;2023-03-19T08:16:13;20.27;;;11.80;;
69956;SDS011;57283;54.816;9.482;2023-03-19T08:18:40;22.52;;;12.25;;
69956;SDS011;57283;54.816;9.482;2023-03-19T08:21:08;22.17;;;11.40;;
69956;SDS011;57283;54.816;9.482;2023-03-19T08:23:36;22.33;;;11.57;;
69956;SDS011;57283;54.816;9.482;2023-03-19T08:26:03;19.02;;;11.27;;
69956;SDS011;57283;54.816;9.482;2023-03-19T08:28:32;20.40;;;10.90;;
69956;SDS011;57283;54.816;9.482;2023-03-19T08:31:04;18.80;;;10.50;;
69956;SDS011;57283;54.816;9.482;2023-03-19T08:33:32;21.73;;;11.90;;
69956;SDS011;57283;54.816;9.482;2023-03-19T08:36:04;18.60;;;10.18;;
69956;SDS011;57283;54.816;9.482;2023-03-19T08:38:32;22.60;;;13.13;;
69956;SDS011;57283;54.816;9.482;2023-03-19T08:41:00;18.07;;;9.83;;
69956;SDS011;57283;54.816;9.482;2023-03-19T08:43:29;19.83;;;11.10;;
69956;SDS011;57283;54.816;9.482;2023-03-19T08:45:58;18.52;;;10.98;;
69956;SDS011;57283;54.816;9.482;2023-03-19T08:48:26;19.58;;;11.32;;
69956;SDS011;57283;54.816;9.482;2023-03-19T08:50:54;20.90;;;10.95;;
69956;SDS011;57283;54.816;9.482;2023-03-19T08:53:22;19.90;;;11.97;;
69956;SDS011;57283;54.816;9.482;2023-03-19T08:55:50;21.42;;;11.73;;
69956;SDS011;57283;54.816;9.482;2023-03-19T08:58:18;20.92;;;11.07;;
69956;SDS011;57283;54.816;9.482;2023-03-19T09:00:46;20.23;;;11.43;;
69956;SDS011;57283;54.816;9.482;2023-03-19T09:03:15;21.15;;;11.57;;
69956;SDS011;57283;54.816;9.482;2023-03-19T09:05:43;21.77;;;12.10;;
69956;SDS011;57283;54.816;9.482;2023-03-19T09:08:11;18.85;;;10.75;;
69956;SDS011;57283;54.816;9.482;2023-03-19T09:10:39;22.17;;;11.57;;
69956;SDS011;57283;54.816;9.482;2023-03-19T09:13:06;23.20;;;12.07;;
69956;SDS011;57283;54.816;9.482;2023-03-19T09:15:34;20.63;;;11.55;;
69956;SDS011;57283;54.816;9.482;2023-03-19T09:18:02;19.10;;;11.27;;
69956;SDS011;57283;54.816;9.482;2023-03-19T09:20:31;18.77;;;10.73;;
69956;SDS011;57283;54.816;9.482;2023-03-19T09:22:58;19.60;;;11.25;;
69956;SDS011;57283;54.816;9.482;2023-03-19T09:25:26;18.17;;;10.40;;
69956;SDS011;57283;54.816;9.482;2023-03-19T09:27:54;20.00;;;10.73;;
69956;SDS011;57283;54.816;9.482;2023-03-19T09:30:21;17.63;;;9.70;;
69956;SDS011;57283;54.816;9.482;2023-03-19T09:32:49;17.90;;;10.50;;
69956;SDS011;57283;54.816;9.482;2023-03-19T09:35:16;18.40;;;10.00;;
69956;SDS011;57283;54.816;9.482;2023-03-19T09:37:45;17.25;;;10.43;;
69956;SDS011;57283;54.816;9.482;2023-03-19T09:40:19;16.83;;;9.73;;
69956;SDS011;57283;54.816;9.482;2023-03-19T09:42:52;18.17;;;10.47;;
69956;SDS011;57283;54.816;9.482;2023-03-19T09:45:22;18.92;;;9.95;;
69956;SDS011;57283;54.816;9.482;2023-03-19T09:47:50;18.30;;;10.93;;
69956;SDS011;57283;54.816;9.482;2023-03-19T09:50:21;18.02;;;10.40;;
69956;SDS011;57283;54.816;9.482;2023-03-19T09:52:52;17.42;;;10.50;;
69956;SDS011;57283;54.816;9.482;2023-03-19T09:55:27;14.83;;;10.00;;
69956;SDS011;57283;54.816;9.482;2023-03-19T09:57:58;17.83;;;9.93;;
69956;SDS011;57283;54.816;9.482;2023-03-19T10:00:27;13.85;;;9.57;;
69956;SDS011;57283;54.816;9.482;2023-03-19T10:02:57;14.35;;;9.30;;
69956;SDS011;57283;54.816;9.482;2023-03-19T10:05:31;15.88;;;10.30;;
69956;SDS011;57283;54.816;9.482;2023-03-19T10:10:50;13.80;;;9.77;;
69956;SDS011;57283;54.816;9.482;2023-03-19T10:13:25;14.52;;;9.75;;
69956;SDS011;57283;54.816;9.482;2023-03-19T10:15:56;14.98;;;10.13;;
69956;SDS011;57283;54.816;9.482;2023-03-19T10:18:27;14.25;;;10.05;;
69956;SDS011;57283;54.816;9.482;2023-03-19T10:20:56;13.83;;;9.40;;
69956;SDS011;57283;54.816;9.482;2023-03-19T10:23:30;12.95;;;8.80;;
69956;SDS011;57283;54.816;9.482;2023-03-19T10:26:01;14.50;;;9.73;;
69956;SDS011;57283;54.816;9.482;2023-03-19T10:28:29;14.95;;;10.40;;
69956;SDS011;57283;54.816;9.482;2023-03-19T10:31:00;14.05;;;9.55;;
69956;SDS011;57283;54.816;9.482;2023-03-19T10:33:31;15.37;;;10.17;;
69956;SDS011;57283;54.816;9.482;2023-03-19T10:36:03;15.88;;;10.18;;
69956;SDS011;57283;54.816;9.482;2023-03-19T10:38:32;13.90;;;9.52;;
69956;SDS011;57283;54.816;9.482;2023-03-19T10:41:15;15.52;;;9.38;;
69956;SDS011;57283;54.816;9.482;2023-03-19T10:43:46;15.98;;;10.23;;
69956;SDS011;57283;54.816;9.482;2023-03-19T10:46:16;15.60;;;9.47;;
69956;SDS011;57283;54.816;9.482;2023-03-19T10:48:44;15.57;;;10.27;;
69956;SDS011;57283;54.816;9.482;2023-03-19T10:51:13;14.55;;;9.85;;
69956;SDS011;57283;54.816;9.482;2023-03-19T10:53:41;12.80;;;9.35;;
69956;SDS011;57283;54.816;9.482;2023-03-19T10:56:16;13.27;;;9.45;;
69956;SDS011;57283;54.816;9.482;2023-03-19T10:58:54;13.30;;;9.03;;
69956;SDS011;57283;54.816;9.482;2023-03-19T11:01:25;15.93;;;9.65;;
69956;SDS011;57283;54.816;9.482;2023-03-19T11:03:54;13.10;;;8.35;;
69956;SDS011;57283;54.816;9.482;2023-03-19T11:06:23;13.65;;;9.15;;
69956;SDS011;57283;54.816;9.482;2023-03-19T11:08:54;14.82;;;9.55;;
69956;SDS011;57283;54.816;9.482;2023-03-19T11:11:24;14.20;;;9.43;;
69956;SDS011;57283;54.816;9.482;2023-03-19T11:13:52;12.20;;;8.43;;
69956;SDS011;57283;54.816;9.482;2023-03-19T11:16:19;13.85;;;9.63;;
69956;SDS011;57283;54.816;9.482;2023-03-19T11:18:47;14.50;;;9.95;;
69956;SDS011;57283;54.816;9.482;2023-03-19T11:21:22;13.15;;;8.73;;
69956;SDS011;57283;54.816;9.482;2023-03-19T11:23:51;13.53;;;9.63;;
69956;SDS011;57283;54.816;9.482;2023-03-19T11:26:19;15.30;;;9.32;;
69956;SDS011;57283;54.816;9.482;2023-03-19T11:28:50;13.95;;;9.15;;
69956;SDS011;57283;54.816;9.482;2023-03-19T11:31:19;13.15;;;9.13;;
69956;SDS011;57283;54.816;9.482;2023-03-19T11:33:51;13.07;;;8.65;;
69956;SDS011;57283;54.816;9.482;2023-03-19T11:36:23;15.43;;;8.63;;
69956;SDS011;57283;54.816;9.482;2023-03-19T11:38:56;13.20;;;8.45;;
69956;SDS011;57283;54.816;9.482;2023-03-19T11:41:30;13.02;;;8.82;;
69956;SDS011;57283;54.816;9.482;2023-03-19T11:44:02;15.05;;;8.57;;
69956;SDS011;57283;54.816;9.482;2023-03-19T11:46:42;13.93;;;8.18;;
69956;SDS011;57283;54.816;9.482;2023-03-19T11:49:15;13.63;;;8.50;;
69956;SDS011;57283;54.816;9.482;2023-03-19T11:51:45;13.90;;;8.20;;
69956;SDS011;57283;54.816;9.482;2023-03-19T11:54:18;13.07;;;8.38;;
69956;SDS011;57283;54.816;9.482;2023-03-19T11:56:49;13.20;;;8.52;;
69956;SDS011;57283;54.816;9.482;2023-03-19T11:59:33;12.90;;;8.65;;
69956;SDS011;57283;54.816;9.482;2023-03-19T12:04:49;12.50;;;8.15;;
69956;SDS011;57283;54.816;9.482;2023-03-19T12:07:22;12.57;;;7.82;;
69956;SDS011;57283;54.816;9.482;2023-03-19T12:09:54;12.68;;;8.57;;
69956;SDS011;57283;54.816;9.482;2023-03-19T12:12:24;12.68;;;8.32;;
69956;SDS011;57283;54.816;9.482;2023-03-19T12:14:59;11.20;;;7.67;;
69956;SDS011;57283;54.816;9.482;2023-03-19T12:17:36;11.57;;;8.07;;
69956;SDS011;57283;54.816;9.482;2023-03-19T12:20:13;12.85;;;8.32;;
69956;SDS011;57283;54.816;9.482;2023-03-19T12:22:46;13.77;;;8.27;;
69956;SDS011;57283;54.816;9.482;2023-03-19T12:25:20;14.32;;;9.27;;
69956;SDS011;57283;54.816;9.482;2023-03-19T12:27:51;13.40;;;8.60;;
69956;SDS011;57283;54.816;9.482;2023-03-19T12:30:24;14.10;;;9.38;;
69956;SDS011;57283;54.816;9.482;2023-03-19T12:32:57;13.38;;;8.45;;
69956;SDS011;57283;54.816;9.482;2023-03-19T12:35:28;12.95;;;9.00;;
69956;SDS011;57283;54.816;9.482;2023-03-19T12:37:59;14.50;;;8.82;;
69956;SDS011;57283;54.816;9.482;2023-03-19T12:40:31;14.40;;;8.60;;
69956;SDS011;57283;54.816;9.482;2023-03-19T12:43:03;14.10;;;8.50;;
69956;SDS011;57283;54.816;9.482;2023-03-19T12:45:33;13.98;;;9.10;;
69956;SDS011;57283;54.816;9.482;2023-03-19T12:48:03;12.73;;;8.23;;
69956;SDS011;57283;54.816;9.482;2023-03-19T12:50:35;12.68;;;8.40;;
69956;SDS011;57283;54.816;9.482;2023-03-19T12:53:04;15.40;;;9.07;;
69956;SDS011;57283;54.816;9.482;2023-03-19T12:55:35;11.43;;;8.15;;
69956;SDS011;57283;54.816;9.482;2023-03-19T12:58:05;13.55;;;8.27;;
69956;SDS011;57283;54.816;9.482;2023-03-19T13:00:39;12.88;;;7.93;;
69956;SDS011;57283;54.816;9.482;2023-03-19T13:03:11;12.35;;;7.80;;
69956;SDS011;57283;54.816;9.482;2023-03-19T13:05:43;11.37;;;7.70;;
69956;SDS011;57283;54.816;9.482;2023-03-19T13:08:13;11.18;;;7.85;;
69956;SDS011;57283;54.816;9.482;2023-03-19T13:10:42;11.02;;;7.75;;
69956;SDS011;57283;54.816;9.482;2023-03-19T13:13:14;11.32;;;7.47;;
69956;SDS011;57283;54.816;9.482;2023-03-19T13:15:47;11.68;;;7.80;;
69956;SDS011;57283;54.816;9.482;2023-03-19T13:18:19;14.63;;;7.27;;
69956;SDS011;57283;54.816;9.482;2023-03-19T13:20:50;13.35;;;7.20;;
69956;SDS011;57283;54.816;9.482;2023-03-19T13:23:24;12.82;;;7.80;;
69956;SDS011;57283;54.816;9.482;2023-03-19T13:25:53;11.27;;;7.18;;
69956;SDS011;57283;54.816;9.482;2023-03-19T13:28:26;12.32;;;7.57;;
69956;SDS011;57283;54.816;9.482;2023-03-19T13:30:58;12.20;;;7.07;;
69956;SDS011;57283;54.816;9.482;2023-03-19T13:33:27;12.77;;;7.43;;
69956;SDS011;57283;54.816;9.482;2023-03-19T13:35:55;11.52;;;7.32;;
69956;SDS011;57283;54.816;9.482;2023-03-19T13:38:24;13.02;;;7.75;;
69956;SDS011;57283;54.816;9.482;2023-03-19T13:40:52;11.80;;;7.47;;
69956;SDS011;57283;54.816;9.482;2023-03-19T13:46:25;11.05;;;7.57;;
69956;SDS011;57283;54.816;9.482;2023-03-19T13:48:53;11.68;;;7.18;;
69956;SDS011;57283;54.816;9.482;2023-03-19T13:51:28;12.63;;;7.32;;
69956;SDS011;57283;54.816;9.482;2023-03-19T13:54:03;11.82;;;7.40;;
69956;SDS011;57283;54.816;9.482;2023-03-19T13:56:54;11.97;;;7.03;;
69956;SDS011;57283;54.816;9.482;2023-03-19T13:59:24;12.45;;;7.13;;
69956;SDS011;57283;54.816;9.482;2023-03-19T14:01:54;12.27;;;6.95;;
69956;SDS011;57283;54.816;9.482;2023-03-19T14:04:23;12.32;;;8.23;;
69956;SDS011;57283;54.816;9.482;2023-03-19T14:06:54;11.00;;;7.15;;
69956;SDS011;57283;54.816;9.482;2023-03-19T14:09:32;10.97;;;7.07;;
69956;SDS011;57283;54.816;9.482;2023-03-19T14:12:10;11.48;;;7.13;;
69956;SDS011;57283;54.816;9.482;2023-03-19T14:14:39;10.90;;;6.40;;
69956;SDS011;57283;54.816;9.482;2023-03-19T14:17:13;11.27;;;6.75;;
69956;SDS011;57283;54.816;9.482;2023-03-19T14:19:41;11.82;;;6.68;;
69956;SDS011;57283;54.816;9.482;2023-03-19T14:22:15;11.83;;;6.53;;
69956;SDS011;57283;54.816;9.482;2023-03-19T14:24:52;11.25;;;6.68;;
69956;SDS011;57283;54.816;9.482;2023-03-19T14:27:25;11.55;;;6.80;;
69956;SDS011;57283;54.816;9.482;2023-03-19T14:29:55;11.10;;;6.60;;
69956;SDS011;57283;54.816;9.482;2023-03-19T14:32:30;12.95;;;6.68;;
69956;SDS011;57283;54.816;9.482;2023-03-19T14:34:59;14.20;;;6.97;;
69956;SDS011;57283;54.816;9.482;2023-03-19T14:37:28;13.55;;;7.32;;
69956;SDS011;57283;54.816;9.482;2023-03-19T14:40:02;12.32;;;7.03;;
69956;SDS011;57283;54.816;9.482;2023-03-19T14:42:37;13.50;;;7.40;;
69956;SDS011;57283;54.816;9.482;2023-03-19T14:50:46;19.02;;;10.70;;
69956;SDS011;57283;54.816;9.482;2023-03-19T14:53:16;13.35;;;7.68;;